createdAt,value
2022-12-27T00:01:26.900Z,94.10
2022-12-27T00:04:00.071Z,94.10
2022-12-27T00:06:36.088Z,94.20
2022-12-27T00:09:12.869Z,94.00
2022-12-27T00:11:45.252Z,93.90
2022-12-27T00:14:13.435Z,93.90
2022-12-27T00:16:41.385Z,93.80
2022-12-27T00:19:09.272Z,93.80
2022-12-27T00:21:37.491Z,94.00
2022-12-27T00:24:06.029Z,94.10
2022-12-27T00:26:35.909Z,93.90
2022-12-27T00:29:14.192Z,93.90
2022-12-27T00:31:49.292Z,93.80
2022-12-27T00:34:20.368Z,93.80
2022-12-27T00:36:48.244Z,93.80
2022-12-27T00:39:19.070Z,94.00
2022-12-27T00:41:54.531Z,93.90
2022-12-27T00:44:23.790Z,93.90
2022-12-27T00:46:51.687Z,93.80
2022-12-27T00:49:19.577Z,93.90
2022-12-27T00:51:52.736Z,93.80
2022-12-27T00:54:20.629Z,94.00
2022-12-27T00:57:02.436Z,94.10
2022-12-27T00:59:31.741Z,94.00
2022-12-27T01:01:59.930Z,94.40
2022-12-27T01:04:27.822Z,94.00
2022-12-27T01:07:00.601Z,94.00
2022-12-27T01:09:28.667Z,94.10
2022-12-27T01:11:56.560Z,94.10
2022-12-27T01:14:31.887Z,94.00
2022-12-27T01:17:18.925Z,93.90
2022-12-27T01:19:49.685Z,93.90
2022-12-27T01:22:17.563Z,93.90
2022-12-27T01:24:48.999Z,93.80
2022-12-27T01:27:19.103Z,93.70
2022-12-27T01:29:47.073Z,94.00
2022-12-27T01:32:19.080Z,94.00
2022-12-27T01:34:50.993Z,93.90
2022-12-27T01:37:18.900Z,94.10
2022-12-27T01:39:49.519Z,94.00
2022-12-27T01:42:36.530Z,94.00
2022-12-27T01:45:24.168Z,94.00
2022-12-27T01:47:57.953Z,93.90
2022-12-27T01:50:31.843Z,94.00
2022-12-27T01:53:05.700Z,94.30
2022-12-27T01:55:41.549Z,94.20
2022-12-27T01:58:15.680Z,92.70
2022-12-27T02:00:47.103Z,93.60
2022-12-27T02:03:23.091Z,93.40
2022-12-27T02:05:51.840Z,94.10
2022-12-27T02:08:28.116Z,92.60
2022-12-27T02:11:02.257Z,94.10
2022-12-27T02:13:32.806Z,94.10
2022-12-27T02:16:03.696Z,92.70
2022-12-27T02:18:35.998Z,94.20
2022-12-27T02:21:43.035Z,94.50
2022-12-27T02:24:54.306Z,94.50
2022-12-27T02:27:39.280Z,94.50
2022-12-27T02:30:14.252Z,93.90
2022-12-27T02:32:54.539Z,94.20
2022-12-27T02:35:31.156Z,94.30
2022-12-27T02:38:03.755Z,94.40
2022-12-27T02:40:51.128Z,94.20
2022-12-27T02:43:44.623Z,94.20
2022-12-27T02:46:40.488Z,94.50
2022-12-27T02:49:46.949Z,94.40
2022-12-27T02:52:48.300Z,93.50
2022-12-27T02:55:34.974Z,94.20
2022-12-27T02:58:22.789Z,94.30
2022-12-27T03:01:21.440Z,94.20
2022-12-27T03:04:18.768Z,93.40
2022-12-27T03:06:58.795Z,94.30
2022-12-27T03:10:07.207Z,94.10
2022-12-27T03:13:04.888Z,94.20
2022-12-27T03:15:56.041Z,94.10
2022-12-27T03:18:41.084Z,94.20
2022-12-27T03:21:29.424Z,94.30
2022-12-27T03:24:29.632Z,94.30
2022-12-27T03:27:05.684Z,94.20
2022-12-27T03:29:51.202Z,94.20
2022-12-27T03:32:43.938Z,94.30
2022-12-27T03:35:17.017Z,94.20
2022-12-27T03:38:03.982Z,94.20
2022-12-27T03:41:02.842Z,90.20
2022-12-27T03:43:40.491Z,94.50
2022-12-27T03:46:38.767Z,94.20
2022-12-27T03:49:24.992Z,94.30
2022-12-27T03:51:58.210Z,92.40
2022-12-27T03:54:30.754Z,94.70
2022-12-27T03:57:05.138Z,94.40
2022-12-27T03:59:40.638Z,94.80
2022-12-27T04:02:12.077Z,93.30
2022-12-27T04:04:40.262Z,94.70
2022-12-27T04:07:08.686Z,94.70
2022-12-27T04:10:00.113Z,94.50
2022-12-27T04:12:47.007Z,94.00
2022-12-27T04:15:35.386Z,94.60
2022-12-27T04:18:22.891Z,94.50
2022-12-27T04:21:08.520Z,94.60
2022-12-27T04:27:00.548Z,95.00
2022-12-27T04:29:48.618Z,94.20
2022-12-27T04:32:34.132Z,95.00
2022-12-27T04:35:02.053Z,94.80
2022-12-27T04:37:38.458Z,94.40
2022-12-27T04:40:27.201Z,94.30
2022-12-27T04:43:17.071Z,94.40
2022-12-27T04:46:02.659Z,94.70
2022-12-27T04:48:48.524Z,94.40
2022-12-27T04:51:34.036Z,94.20
2022-12-27T04:54:21.566Z,94.30
2022-12-27T04:56:49.433Z,94.10
2022-12-27T04:59:43.459Z,94.30
2022-12-27T05:02:36.153Z,94.30
2022-12-27T05:05:04.277Z,94.30
2022-12-27T05:07:56.498Z,92.00
2022-12-27T05:10:45.229Z,94.30
2022-12-27T05:13:35.002Z,94.20
2022-12-27T05:16:04.476Z,94.10
2022-12-27T05:18:32.403Z,94.10
2022-12-27T05:21:03.922Z,94.10
2022-12-27T05:23:52.338Z,94.10
2022-12-27T05:26:21.829Z,94.10
2022-12-27T05:28:50.242Z,94.00
2022-12-27T05:31:19.721Z,94.10
2022-12-27T05:33:59.046Z,93.90
2022-12-27T05:36:38.576Z,94.00
2022-12-27T05:39:06.410Z,93.70
2022-12-27T05:41:34.287Z,93.90
2022-12-27T05:44:07.074Z,93.50
2022-12-27T05:46:39.982Z,93.90
2022-12-27T05:49:12.459Z,94.20
2022-12-27T05:51:40.323Z,93.60
2022-12-27T05:54:10.998Z,94.00
2022-12-27T05:56:38.867Z,91.40
2022-12-27T05:59:15.671Z,92.30
2022-12-27T06:01:47.622Z,94.10
2022-12-27T06:04:15.609Z,94.00
2022-12-27T06:06:49.635Z,92.80
2022-12-27T06:09:17.489Z,91.20
2022-12-27T06:11:46.835Z,91.70
2022-12-27T06:14:14.728Z,93.80
2022-12-27T06:16:43.985Z,92.50
2022-12-27T06:19:21.138Z,90.30
2022-12-27T06:21:51.813Z,94.40
2022-12-27T06:24:27.166Z,91.20
2022-12-27T06:26:57.855Z,93.30
2022-12-27T06:29:25.672Z,94.90
2022-12-27T06:31:58.130Z,93.60
2022-12-27T06:34:31.745Z,94.80
2022-12-27T06:36:59.628Z,94.50
2022-12-27T06:39:27.595Z,93.90
2022-12-27T06:41:56.245Z,92.20
2022-12-27T06:44:24.128Z,93.40
2022-12-27T06:46:58.995Z,94.60
2022-12-27T06:49:26.871Z,94.10
2022-12-27T06:51:59.934Z,93.10
2022-12-27T06:54:30.775Z,94.50
2022-12-27T06:56:58.710Z,94.70
2022-12-27T06:59:26.700Z,95.00
2022-12-27T07:01:56.054Z,91.80
2022-12-27T07:04:32.663Z,92.10
2022-12-27T07:07:02.023Z,91.00
2022-12-27T07:09:29.908Z,92.40
2022-12-27T07:11:57.853Z,90.70
2022-12-27T07:14:28.921Z,92.40
2022-12-27T07:16:58.201Z,92.30
2022-12-27T07:19:26.128Z,92.20
2022-12-27T07:21:57.065Z,91.00
2022-12-27T07:24:28.028Z,92.00
2022-12-27T07:26:55.922Z,93.60
2022-12-27T07:29:23.791Z,94.10
2022-12-27T07:31:51.680Z,93.90
2022-12-27T07:34:36.972Z,94.10
2022-12-27T07:37:13.515Z,94.00
2022-12-27T07:39:43.572Z,93.70
2022-12-27T07:42:11.457Z,92.80
2022-12-27T07:44:42.289Z,94.20
2022-12-27T07:47:10.152Z,93.40
2022-12-27T07:49:45.630Z,94.10
2022-12-27T07:52:16.358Z,93.10
2022-12-27T07:54:44.247Z,92.60
2022-12-27T07:57:12.119Z,92.70
2022-12-27T07:59:40.012Z,91.20
2022-12-27T08:02:11.315Z,89.00
2022-12-27T08:04:56.711Z,92.30
2022-12-27T08:07:36.104Z,92.20
2022-12-27T08:10:11.343Z,93.20
2022-12-27T08:12:52.364Z,93.80
2022-12-27T08:15:21.232Z,92.90
2022-12-27T08:17:52.265Z,94.00
2022-12-27T08:20:32.128Z,94.70
2022-12-27T08:23:02.418Z,94.30
2022-12-27T08:25:33.101Z,94.20
2022-12-27T08:28:04.971Z,92.90
2022-12-27T08:30:33.071Z,94.00
2022-12-27T08:33:03.043Z,94.20
2022-12-27T08:35:54.858Z,92.70
2022-12-27T08:38:26.191Z,94.10
2022-12-27T08:40:59.932Z,94.00
2022-12-27T08:43:29.735Z,93.80
2022-12-27T08:46:09.527Z,93.50
2022-12-27T08:48:43.287Z,93.60
2022-12-27T08:51:20.808Z,93.60
2022-12-27T08:53:58.309Z,93.60
2022-12-27T08:56:28.386Z,93.40
2022-12-27T08:58:56.254Z,93.10
2022-12-27T09:01:25.751Z,93.30
2022-12-27T09:03:54.156Z,93.40
2022-12-27T09:06:25.596Z,93.40
2022-12-27T09:08:55.862Z,93.50
2022-12-27T09:11:34.464Z,93.50
2022-12-27T09:14:04.018Z,93.50
2022-12-27T09:16:35.628Z,93.50
2022-12-27T09:19:08.950Z,93.60
2022-12-27T09:21:43.900Z,93.50
2022-12-27T09:24:14.725Z,93.50
2022-12-27T09:27:03.720Z,93.60
2022-12-27T09:29:31.627Z,93.50
2022-12-27T09:32:06.011Z,90.80
2022-12-27T09:34:33.929Z,89.50
2022-12-27T09:37:20.749Z,90.40
2022-12-27T09:39:48.599Z,91.00
2022-12-27T09:42:50.781Z,91.50
2022-12-27T09:45:29.797Z,92.10
2022-12-27T09:48:01.426Z,92.20
2022-12-27T09:50:33.152Z,92.00
2022-12-27T09:53:07.771Z,92.80
2022-12-27T09:55:40.637Z,92.70
2022-12-27T09:58:24.053Z,91.80
2022-12-27T10:00:58.249Z,92.40
2022-12-27T10:03:28.649Z,93.20
2022-12-27T10:06:15.325Z,93.30
2022-12-27T10:08:59.454Z,93.40
2022-12-27T10:11:37.008Z,93.30
2022-12-27T10:14:18.071Z,92.40
2022-12-27T10:17:00.149Z,92.60
2022-12-27T10:22:27.897Z,92.40
2022-12-27T10:25:00.092Z,93.50
2022-12-27T10:27:30.351Z,93.40
2022-12-27T10:30:03.291Z,92.10
2022-12-27T10:32:31.226Z,93.30
2022-12-27T10:35:01.586Z,91.40
2022-12-27T10:37:32.229Z,93.60
2022-12-27T10:40:09.954Z,93.70
2022-12-27T10:42:45.063Z,92.80
2022-12-27T10:45:27.042Z,92.50
2022-12-27T10:47:56.765Z,93.70
2022-12-27T10:50:27.554Z,93.20
2022-12-27T10:52:57.651Z,94.20
2022-12-27T10:55:36.069Z,92.60
2022-12-27T10:58:22.580Z,94.10
2022-12-27T11:00:55.201Z,90.20
2022-12-27T11:03:23.215Z,94.70
2022-12-27T11:06:01.411Z,94.30
2022-12-27T11:08:30.188Z,94.50
2022-12-27T11:11:19.172Z,94.40
2022-12-27T11:13:47.761Z,94.50
2022-12-27T11:16:24.977Z,94.40
2022-12-27T11:18:55.507Z,94.50
2022-12-27T11:21:27.728Z,94.40
2022-12-27T11:24:02.101Z,94.30
2022-12-27T11:26:42.588Z,94.20
2022-12-27T11:29:19.359Z,94.40
2022-12-27T11:31:55.118Z,93.60
2022-12-27T11:34:33.030Z,94.30
2022-12-27T11:37:15.498Z,94.20
2022-12-27T11:39:45.244Z,94.30
2022-12-27T11:42:23.307Z,94.20
2022-12-27T11:45:05.908Z,94.20
2022-12-27T11:47:48.568Z,94.00
2022-12-27T11:53:55.792Z,93.90
2022-12-27T11:56:31.715Z,94.10
2022-12-27T12:03:01.327Z,93.70
2022-12-27T12:06:03.543Z,94.20
2022-12-27T12:09:00.193Z,93.80
2022-12-27T12:11:58.207Z,93.40
2022-12-27T12:15:10.594Z,93.80
2022-12-27T12:18:09.823Z,93.70
2022-12-27T12:21:19.549Z,93.90
2022-12-27T12:24:00.895Z,93.80
2022-12-27T12:26:44.868Z,94.30
2022-12-27T12:29:44.112Z,93.90
2022-12-27T12:32:29.549Z,93.80
2022-12-27T12:35:18.163Z,93.50
2022-12-27T12:38:13.123Z,93.60
2022-12-27T12:41:16.829Z,93.50
2022-12-27T12:44:22.735Z,93.30
2022-12-27T12:47:06.093Z,93.20
2022-12-27T12:53:01.927Z,93.10
2022-12-27T12:55:40.996Z,93.10
2022-12-27T12:58:24.894Z,93.10
2022-12-27T13:01:20.007Z,93.10
2022-12-27T13:04:17.900Z,93.20
2022-12-27T13:07:22.909Z,93.20
2022-12-27T13:10:26.209Z,93.20
2022-12-27T13:13:20.768Z,93.30
2022-12-27T13:16:01.396Z,93.70
2022-12-27T13:18:44.845Z,93.40
2022-12-27T13:21:34.366Z,93.30
2022-12-27T13:24:11.560Z,93.30
2022-12-27T13:26:49.774Z,93.20
2022-12-27T13:29:47.171Z,93.30
2022-12-27T13:32:49.507Z,93.20
2022-12-27T13:35:29.745Z,93.20
2022-12-27T13:38:15.747Z,92.10
2022-12-27T13:41:30.725Z,88.20
2022-12-27T13:44:20.076Z,89.30
2022-12-27T13:47:08.736Z,90.00
2022-12-27T13:50:00.701Z,90.00
2022-12-27T13:52:54.473Z,90.70
2022-12-27T13:55:50.761Z,91.30
2022-12-27T13:59:07.091Z,91.50
2022-12-27T14:01:56.875Z,91.70
2022-12-27T14:04:47.640Z,91.80
2022-12-27T14:07:45.588Z,92.00
2022-12-27T14:10:37.370Z,92.00
2022-12-27T14:13:09.435Z,92.00
2022-12-27T14:16:18.824Z,92.10
2022-12-27T14:19:05.405Z,92.20
2022-12-27T14:22:05.042Z,89.50
2022-12-27T14:28:24.161Z,90.80
2022-12-27T14:31:17.238Z,91.20
2022-12-27T14:34:08.023Z,91.50
2022-12-27T14:37:18.251Z,91.60
2022-12-27T14:40:20.512Z,91.70
2022-12-27T14:43:28.478Z,91.80
2022-12-27T14:46:47.866Z,91.90
2022-12-27T14:49:54.873Z,92.00
2022-12-27T14:52:59.284Z,92.00
2022-12-27T14:55:41.734Z,92.20
2022-12-27T14:58:54.697Z,92.30
2022-12-27T15:01:47.459Z,92.30
2022-12-27T15:04:55.956Z,92.30
2022-12-27T15:07:49.396Z,92.40
2022-12-27T15:10:33.747Z,92.50
2022-12-27T15:13:13.559Z,92.50
2022-12-27T15:15:58.493Z,92.60
2022-12-27T15:18:40.540Z,92.60
2022-12-27T15:21:25.111Z,92.60
2022-12-27T15:24:08.121Z,92.60
2022-12-27T15:26:46.684Z,92.60
2022-12-27T15:29:30.115Z,92.70
2022-12-27T15:32:10.721Z,92.70
2022-12-27T15:35:15.680Z,92.60
2022-12-27T15:38:38.815Z,92.70
2022-12-27T15:41:23.322Z,92.80
2022-12-27T15:44:08.345Z,92.80
2022-12-27T15:47:15.082Z,92.70
2022-12-27T15:50:36.217Z,92.90
2022-12-27T15:53:27.684Z,92.70
2022-12-27T15:56:41.909Z,92.70
2022-12-27T15:59:36.942Z,92.80
2022-12-27T16:02:40.069Z,92.90
2022-12-27T16:05:43.738Z,92.80
2022-12-27T16:08:39.792Z,92.90
2022-12-27T16:11:13.136Z,92.90
2022-12-27T16:13:49.830Z,88.90
2022-12-27T16:16:57.534Z,90.00
2022-12-27T16:19:54.125Z,90.60
2022-12-27T16:22:37.746Z,91.10
2022-12-27T16:25:30.645Z,91.40
2022-12-27T16:28:03.255Z,91.60
2022-12-27T16:30:42.180Z,91.70
2022-12-27T16:33:38.474Z,91.70
2022-12-27T16:36:22.808Z,91.90
2022-12-27T16:39:14.621Z,92.00
2022-12-27T16:42:03.885Z,92.10
2022-12-27T16:44:57.224Z,92.10
2022-12-27T16:47:57.815Z,92.20
2022-12-27T16:50:57.973Z,92.30
2022-12-27T16:56:49.187Z,92.30
2022-12-27T16:59:56.856Z,92.20
2022-12-27T17:02:40.679Z,92.30
2022-12-27T17:05:44.839Z,92.50
2022-12-27T17:08:24.606Z,92.60
2022-12-27T17:11:26.360Z,92.80
2022-12-27T17:13:57.034Z,92.60
2022-12-27T17:16:38.183Z,92.50
2022-12-27T17:19:09.173Z,92.70
2022-12-27T17:21:42.929Z,92.60
2022-12-27T17:24:18.146Z,92.70
2022-12-27T17:27:09.554Z,92.60
2022-12-27T17:30:07.679Z,92.60
2022-12-27T17:32:53.889Z,92.60
2022-12-27T17:35:29.230Z,92.70
2022-12-27T17:38:12.482Z,92.60
2022-12-27T17:40:47.387Z,92.60
2022-12-27T17:43:46.910Z,92.60
2022-12-27T17:46:33.012Z,92.50
2022-12-27T17:49:08.480Z,92.50
2022-12-27T17:51:40.454Z,92.50
2022-12-27T17:54:42.610Z,92.40
2022-12-27T17:57:33.142Z,92.60
2022-12-27T18:00:23.356Z,92.70
2022-12-27T18:02:59.428Z,92.70
2022-12-27T18:05:32.089Z,92.80
2022-12-27T18:08:18.954Z,92.50
2022-12-27T18:10:53.250Z,92.40
2022-12-27T18:13:25.107Z,92.40
2022-12-27T18:16:11.343Z,92.30
2022-12-27T18:18:50.990Z,92.30
2022-12-27T18:21:24.718Z,92.40
2022-12-27T18:23:55.804Z,92.50
2022-12-27T18:26:36.103Z,92.20
2022-12-27T18:29:12.466Z,92.40
2022-12-27T18:31:49.861Z,92.40
2022-12-27T18:34:27.418Z,92.40
2022-12-27T18:37:00.480Z,92.40
2022-12-27T18:39:30.918Z,92.30
2022-12-27T18:42:00.502Z,92.30
2022-12-27T18:44:31.653Z,92.40
2022-12-27T18:47:04.109Z,90.90
2022-12-27T18:49:37.585Z,91.20
2022-12-27T18:52:17.144Z,91.40
2022-12-27T18:54:45.025Z,91.60
2022-12-27T18:57:30.334Z,91.60
2022-12-27T19:00:29.293Z,91.70
2022-12-27T19:03:14.827Z,91.90
2022-12-27T19:06:03.929Z,92.00
2022-12-27T19:08:38.192Z,92.00
2022-12-27T19:11:07.858Z,91.90
2022-12-27T19:13:52.844Z,91.90
2022-12-27T19:16:27.173Z,91.90
2022-12-27T19:19:04.157Z,92.00
2022-12-27T19:21:37.174Z,92.00
2022-12-27T19:24:33.969Z,91.80
2022-12-27T19:27:15.817Z,91.90
2022-12-27T19:29:55.344Z,92.00
2022-12-27T19:32:27.638Z,91.80
2022-12-27T19:34:59.252Z,92.00
2022-12-27T19:37:35.611Z,92.00
2022-12-27T19:40:07.802Z,92.00
2022-12-27T19:42:35.807Z,92.00
2022-12-27T19:45:07.662Z,92.10
2022-12-27T19:47:52.120Z,92.10
2022-12-27T19:50:27.449Z,92.00
2022-12-27T19:53:01.682Z,92.10
2022-12-27T19:55:36.117Z,92.00
2022-12-27T19:58:19.249Z,92.00
2022-12-27T20:00:47.148Z,92.10
2022-12-27T20:03:17.482Z,92.00
2022-12-27T20:06:12.527Z,92.10
2022-12-27T20:08:43.556Z,91.90
2022-12-27T20:11:15.754Z,91.90
2022-12-27T20:13:44.055Z,92.00
2022-12-27T20:16:19.877Z,92.00
2022-12-27T20:18:59.746Z,92.00
2022-12-27T20:21:34.929Z,92.00
2022-12-27T20:24:06.327Z,92.00
2022-12-27T20:26:36.468Z,91.90
2022-12-27T20:29:04.460Z,92.00
2022-12-27T20:31:42.208Z,92.10
2022-12-27T20:34:18.161Z,92.00
2022-12-27T20:36:47.425Z,91.90
2022-12-27T20:39:21.211Z,91.80
2022-12-27T20:41:49.117Z,92.00
2022-12-27T20:44:17.271Z,92.00
2022-12-27T20:46:48.538Z,92.00
2022-12-27T20:49:21.408Z,92.00
2022-12-27T20:51:55.960Z,92.00
2022-12-27T20:54:29.623Z,92.10
2022-12-27T20:56:57.465Z,92.00
2022-12-27T20:59:27.688Z,91.90
2022-12-27T21:02:07.365Z,91.80
2022-12-27T21:04:35.383Z,91.70
2022-12-27T21:07:10.279Z,92.10
2022-12-27T21:09:40.950Z,91.80
2022-12-27T21:12:14.749Z,91.70
2022-12-27T21:14:42.616Z,91.90
2022-12-27T21:17:10.572Z,91.80
2022-12-27T21:19:41.414Z,91.90
2022-12-27T21:22:13.158Z,91.90
2022-12-27T21:24:44.124Z,91.90
2022-12-27T21:27:17.811Z,91.80
2022-12-27T21:29:45.639Z,91.90
2022-12-27T21:32:13.549Z,92.20
2022-12-27T21:34:44.446Z,92.00
2022-12-27T21:37:13.813Z,92.00
2022-12-27T21:39:44.490Z,92.00
2022-12-27T21:42:24.554Z,92.10
2022-12-27T21:45:05.172Z,92.10
2022-12-27T21:47:36.095Z,92.10
2022-12-27T21:50:10.475Z,92.10
2022-12-27T21:52:39.775Z,92.00
2022-12-27T21:55:10.662Z,92.10
2022-12-27T21:57:40.931Z,92.10
2022-12-27T22:00:10.208Z,91.90
2022-12-27T22:02:54.836Z,92.20
2022-12-27T22:05:31.776Z,92.20
2022-12-27T22:08:07.079Z,92.20
2022-12-27T22:10:56.596Z,92.10
2022-12-27T22:13:28.742Z,92.20
2022-12-27T22:16:00.830Z,92.30
2022-12-27T22:18:41.377Z,92.30
2022-12-27T22:21:14.524Z,92.30
2022-12-27T22:23:45.409Z,92.10
2022-12-27T22:26:30.387Z,92.10
2022-12-27T22:29:04.481Z,92.20
2022-12-27T22:31:53.599Z,92.10
2022-12-27T22:34:24.250Z,92.20
2022-12-27T22:36:54.793Z,92.30
2022-12-27T22:39:29.976Z,92.10
2022-12-27T22:42:06.733Z,92.00
2022-12-27T22:44:41.151Z,92.10
2022-12-27T22:47:26.150Z,92.10
2022-12-27T22:50:05.773Z,92.20
2022-12-27T22:52:48.299Z,92.00
2022-12-27T22:55:32.414Z,92.10
2022-12-27T22:58:00.284Z,92.40
2022-12-27T23:00:30.891Z,92.20
2022-12-27T23:02:58.772Z,92.20
2022-12-27T23:05:34.109Z,92.20
2022-12-27T23:08:07.056Z,92.30
2022-12-27T23:10:45.112Z,92.20
2022-12-27T23:13:22.123Z,92.20
2022-12-27T23:16:03.438Z,92.20
2022-12-27T23:18:39.972Z,92.10
2022-12-27T23:21:20.656Z,92.30
2022-12-27T23:23:57.972Z,92.00
2022-12-27T23:26:30.372Z,92.20
2022-12-27T23:28:58.842Z,92.20
2022-12-27T23:31:27.606Z,92.30
2022-12-27T23:33:57.763Z,92.20
2022-12-27T23:36:25.657Z,92.30
2022-12-27T23:39:05.763Z,92.30
2022-12-27T23:41:36.999Z,92.30
2022-12-27T23:44:05.387Z,92.20
2022-12-27T23:46:36.778Z,92.30
2022-12-27T23:49:05.228Z,92.60
2022-12-27T23:51:33.512Z,92.20
2022-12-27T23:54:09.773Z,92.00
2022-12-27T23:56:39.052Z,92.50
2022-12-27T23:59:09.335Z,92.70
